createdAt,value
2023-01-15T00:00:38.766Z,12.04
2023-01-15T00:03:12.852Z,12.06
2023-01-15T00:05:47.862Z,12.09
2023-01-15T00:08:16.455Z,12.12
2023-01-15T00:10:43.243Z,12.13
2023-01-15T00:13:10.944Z,12.08
2023-01-15T00:15:38.090Z,12.07
2023-01-15T00:18:05.304Z,12.08
2023-01-15T00:20:32.646Z,12.08
2023-01-15T00:22:59.447Z,12.10
2023-01-15T00:25:27.759Z,12.06
2023-01-15T00:27:54.572Z,12.04
2023-01-15T00:30:21.834Z,12.10
2023-01-15T00:32:48.745Z,12.06
2023-01-15T00:35:18.413Z,12.07
2023-01-15T00:37:45.515Z,12.14
2023-01-15T00:40:14.319Z,12.12
2023-01-15T00:42:42.961Z,12.08
2023-01-15T00:45:13.598Z,12.10
2023-01-15T00:47:43.447Z,12.07
2023-01-15T00:50:14.283Z,12.00
2023-01-15T00:52:42.052Z,12.00
2023-01-15T00:55:09.709Z,11.99
2023-01-15T00:57:36.612Z,12.02
2023-01-15T01:00:07.079Z,12.04
2023-01-15T01:02:35.124Z,12.06
2023-01-15T01:05:02.103Z,12.07
2023-01-15T01:07:30.042Z,12.17
2023-01-15T01:09:56.902Z,12.24
2023-01-15T01:12:23.839Z,12.30
2023-01-15T01:14:50.650Z,12.34
2023-01-15T01:17:18.829Z,12.34
2023-01-15T01:19:45.776Z,12.37
2023-01-15T01:22:12.725Z,12.34
2023-01-15T01:24:40.090Z,12.38
2023-01-15T01:27:07.066Z,12.43
2023-01-15T01:29:33.941Z,12.45
2023-01-15T01:32:01.091Z,12.44
2023-01-15T01:34:29.305Z,12.48
2023-01-15T01:36:56.108Z,12.48
2023-01-15T01:39:22.874Z,12.53
2023-01-15T01:41:49.791Z,12.51
2023-01-15T01:45:07.134Z,12.55
2023-01-15T01:47:35.387Z,12.62
2023-01-15T01:50:11.865Z,12.61
2023-01-15T01:52:46.059Z,12.58
2023-01-15T01:55:18.010Z,12.59
2023-01-15T01:57:47.792Z,12.62
2023-01-15T02:00:15.642Z,12.63
2023-01-15T02:02:46.749Z,12.65
2023-01-15T02:05:33.839Z,12.62
2023-01-15T02:08:00.993Z,12.62
2023-01-15T02:10:28.928Z,12.57
2023-01-15T02:13:07.034Z,12.57
2023-01-15T02:15:40.325Z,12.72
2023-01-15T02:18:20.475Z,12.61
2023-01-15T02:20:57.494Z,12.59
2023-01-15T02:24:03.219Z,12.58
2023-01-15T02:26:59.008Z,12.55
2023-01-15T02:29:38.603Z,12.59
2023-01-15T02:32:13.381Z,12.56
2023-01-15T02:34:50.592Z,12.55
2023-01-15T02:37:26.566Z,12.60
2023-01-15T02:39:59.265Z,12.64
2023-01-15T02:42:30.935Z,12.60
2023-01-15T02:45:01.476Z,12.61
2023-01-15T02:47:35.968Z,12.52
2023-01-15T02:50:12.728Z,12.51
2023-01-15T02:52:47.025Z,12.59
2023-01-15T02:55:30.258Z,12.52
2023-01-15T02:58:04.993Z,12.48
2023-01-15T03:00:43.942Z,12.52
2023-01-15T03:03:18.391Z,12.49
2023-01-15T03:05:55.942Z,12.52
2023-01-15T03:08:23.109Z,12.47
2023-01-15T03:11:04.963Z,12.47
2023-01-15T03:13:48.250Z,12.42
2023-01-15T03:16:26.162Z,12.42
2023-01-15T03:19:00.995Z,12.37
2023-01-15T03:21:40.981Z,12.34
2023-01-15T03:24:12.789Z,12.35
2023-01-15T03:26:39.945Z,12.31
2023-01-15T03:29:09.837Z,12.29
2023-01-15T03:31:37.876Z,12.34
2023-01-15T03:34:04.968Z,12.34
2023-01-15T03:36:31.755Z,12.35
2023-01-15T03:39:01.978Z,12.41
2023-01-15T03:41:55.986Z,12.50
2023-01-15T03:44:35.326Z,12.45
2023-01-15T03:47:20.184Z,12.46
2023-01-15T03:49:59.653Z,12.47
2023-01-15T03:52:48.068Z,12.48
2023-01-15T03:55:22.474Z,12.55
2023-01-15T03:58:11.082Z,12.52
2023-01-15T04:00:49.028Z,12.53
2023-01-15T04:03:20.344Z,12.58
2023-01-15T04:05:51.654Z,12.57
2023-01-15T04:08:26.527Z,12.62
2023-01-15T04:10:55.164Z,12.57
2023-01-15T04:13:24.213Z,12.59
2023-01-15T04:15:55.716Z,12.58
2023-01-15T04:18:23.160Z,12.62
2023-01-15T04:20:50.008Z,12.55
2023-01-15T04:23:17.203Z,12.53
2023-01-15T04:25:44.030Z,12.60
2023-01-15T04:28:10.879Z,12.56
2023-01-15T04:30:37.791Z,12.62
2023-01-15T04:33:06.508Z,12.56
2023-01-15T04:35:33.309Z,12.53
2023-01-15T04:38:00.944Z,12.53
2023-01-15T04:40:28.117Z,12.01
2023-01-15T04:42:56.228Z,11.79
2023-01-15T04:45:23.083Z,11.59
2023-01-15T04:47:49.896Z,11.41
2023-01-15T04:50:18.205Z,11.22
2023-01-15T04:52:45.012Z,11.11
2023-01-15T04:55:11.861Z,11.05
2023-01-15T04:57:38.777Z,11.02
2023-01-15T05:00:07.813Z,10.84
2023-01-15T05:02:34.712Z,10.78
2023-01-15T05:05:01.648Z,10.73
2023-01-15T05:07:29.898Z,10.69
2023-01-15T05:09:56.729Z,10.65
2023-01-15T05:12:23.683Z,10.58
2023-01-15T05:14:50.459Z,10.50
2023-01-15T05:17:17.574Z,10.51
2023-01-15T05:19:44.402Z,10.50
2023-01-15T05:22:11.469Z,10.47
2023-01-15T05:24:39.909Z,10.47
2023-01-15T05:27:06.734Z,10.29
2023-01-15T05:29:33.590Z,9.96
2023-01-15T05:32:00.490Z,9.83
2023-01-15T05:34:27.342Z,9.81
2023-01-15T05:36:54.215Z,9.71
2023-01-15T05:39:20.991Z,9.68
2023-01-15T05:41:49.275Z,9.68
2023-01-15T05:44:21.881Z,9.66
2023-01-15T05:46:50.685Z,9.66
2023-01-15T05:49:22.166Z,9.62
2023-01-15T05:51:50.628Z,9.54
2023-01-15T05:54:21.165Z,9.48
2023-01-15T05:56:49.414Z,9.49
2023-01-15T05:59:18.664Z,9.49
2023-01-15T06:01:45.684Z,9.53
2023-01-15T06:04:13.546Z,9.59
2023-01-15T06:06:42.062Z,9.59
2023-01-15T06:09:09.938Z,9.61
2023-01-15T06:11:36.721Z,9.60
2023-01-15T06:14:05.382Z,9.52
2023-01-15T06:16:32.667Z,9.40
2023-01-15T06:19:01.556Z,9.29
2023-01-15T06:21:28.339Z,9.12
2023-01-15T06:23:56.201Z,8.96
2023-01-15T06:26:23.671Z,8.93
2023-01-15T06:28:50.674Z,8.86
2023-01-15T06:31:21.847Z,8.82
2023-01-15T06:33:49.197Z,8.77
2023-01-15T06:36:19.482Z,8.69
2023-01-15T06:38:46.220Z,8.72
2023-01-15T06:41:15.843Z,8.63
2023-01-15T06:43:42.637Z,8.63
2023-01-15T06:46:09.923Z,8.66
2023-01-15T06:48:38.210Z,8.63
2023-01-15T06:51:05.385Z,8.49
2023-01-15T06:53:32.150Z,8.45
2023-01-15T06:55:58.895Z,8.32
2023-01-15T06:58:25.877Z,8.35
2023-01-15T07:00:52.734Z,8.32
2023-01-15T07:03:20.151Z,8.30
2023-01-15T07:05:48.295Z,8.17
2023-01-15T07:08:15.176Z,8.12
2023-01-15T07:10:41.962Z,7.97
2023-01-15T07:13:09.984Z,7.84
2023-01-15T07:15:38.941Z,7.84
2023-01-15T07:18:05.851Z,7.88
2023-01-15T07:20:33.022Z,7.88
2023-01-15T07:23:01.360Z,7.92
2023-01-15T07:25:28.219Z,7.95
2023-01-15T07:27:54.975Z,7.98
2023-01-15T07:30:21.919Z,8.03
2023-01-15T07:32:49.970Z,8.01
2023-01-15T07:35:16.870Z,7.98
2023-01-15T07:37:43.742Z,7.91
2023-01-15T07:40:12.755Z,7.87
2023-01-15T07:42:39.629Z,7.89
2023-01-15T07:45:08.513Z,7.88
2023-01-15T07:47:35.365Z,7.88
2023-01-15T07:50:03.399Z,7.93
2023-01-15T07:52:30.391Z,7.95
2023-01-15T07:54:57.527Z,7.87
2023-01-15T07:57:25.741Z,7.92
2023-01-15T07:59:52.755Z,7.88
2023-01-15T08:02:19.673Z,7.91
2023-01-15T08:04:46.979Z,7.97
2023-01-15T08:07:14.740Z,7.95
2023-01-15T08:09:41.993Z,7.87
2023-01-15T08:12:11.609Z,7.85
2023-01-15T08:14:40.081Z,7.75
2023-01-15T08:17:06.947Z,7.77
2023-01-15T08:19:33.797Z,7.75
2023-01-15T08:22:00.598Z,7.72
2023-01-15T08:24:28.033Z,7.68
2023-01-15T08:26:56.035Z,7.72
2023-01-15T08:29:23.099Z,7.73
2023-01-15T08:31:51.245Z,7.74
2023-01-15T08:34:18.180Z,7.66
2023-01-15T08:36:45.223Z,7.68
2023-01-15T08:39:12.429Z,7.64
2023-01-15T08:41:39.263Z,7.58
2023-01-15T08:44:06.044Z,7.57
2023-01-15T08:46:33.038Z,7.57
2023-01-15T08:49:01.279Z,7.62
2023-01-15T08:51:28.221Z,7.64
2023-01-15T08:53:55.054Z,7.71
2023-01-15T08:56:21.948Z,7.66
2023-01-15T08:58:48.805Z,7.69
2023-01-15T09:01:16.991Z,7.69
2023-01-15T09:03:43.896Z,7.65
2023-01-15T09:06:12.178Z,7.58
2023-01-15T09:08:39.899Z,7.57
2023-01-15T09:11:09.479Z,7.51
2023-01-15T09:13:37.096Z,7.50
2023-01-15T09:16:06.910Z,7.51
2023-01-15T09:18:35.104Z,7.56
2023-01-15T09:21:01.876Z,7.59
2023-01-15T09:23:30.969Z,7.63
2023-01-15T09:26:01.050Z,7.57
2023-01-15T09:28:32.608Z,7.54
2023-01-15T09:30:59.909Z,7.58
2023-01-15T09:33:26.910Z,7.44
2023-01-15T09:35:54.536Z,7.48
2023-01-15T09:38:22.044Z,7.41
2023-01-15T09:40:55.052Z,7.39
2023-01-15T09:43:50.656Z,7.36
2023-01-15T09:46:28.637Z,7.41
2023-01-15T09:49:13.370Z,7.35
2023-01-15T09:51:54.120Z,7.30
2023-01-15T09:54:46.677Z,7.22
2023-01-15T09:57:19.452Z,7.23
2023-01-15T09:59:50.572Z,7.21
2023-01-15T10:02:27.062Z,7.09
2023-01-15T10:05:04.788Z,6.94
2023-01-15T10:07:45.083Z,6.95
2023-01-15T10:10:19.825Z,6.97
2023-01-15T10:12:57.720Z,6.93
2023-01-15T10:15:35.864Z,6.92
2023-01-15T10:18:04.819Z,6.94
2023-01-15T10:21:03.381Z,6.86
2023-01-15T10:23:36.815Z,6.84
2023-01-15T10:26:14.600Z,6.87
2023-01-15T10:29:01.215Z,6.84
2023-01-15T10:31:48.803Z,6.90
2023-01-15T10:35:01.069Z,6.82
2023-01-15T10:37:37.830Z,6.73
2023-01-15T10:40:29.344Z,6.73
2023-01-15T10:43:05.077Z,6.76
2023-01-15T10:45:43.230Z,6.72
2023-01-15T10:48:30.362Z,6.72
2023-01-15T10:51:08.350Z,6.82
2023-01-15T10:53:45.214Z,6.54
2023-01-15T10:56:26.456Z,6.62
2023-01-15T10:59:06.262Z,6.59
2023-01-15T11:01:33.176Z,6.57
2023-01-15T11:04:01.621Z,6.59
2023-01-15T11:06:31.533Z,6.54
2023-01-15T11:09:09.199Z,6.58
2023-01-15T11:11:45.527Z,6.57
2023-01-15T11:14:12.450Z,6.60
2023-01-15T11:16:44.288Z,6.64
2023-01-15T11:19:27.415Z,6.69
2023-01-15T11:21:54.673Z,6.72
2023-01-15T11:24:21.889Z,6.63
2023-01-15T11:26:53.015Z,6.52
2023-01-15T11:29:33.525Z,6.56
2023-01-15T11:32:00.478Z,6.59
2023-01-15T11:34:28.860Z,6.60
2023-01-15T11:37:04.351Z,6.61
2023-01-15T11:39:31.849Z,6.58
2023-01-15T11:42:00.155Z,6.56
2023-01-15T11:44:26.954Z,6.42
2023-01-15T11:46:55.286Z,6.53
2023-01-15T11:49:22.431Z,6.55
2023-01-15T11:51:50.814Z,6.63
2023-01-15T11:54:18.569Z,6.62
2023-01-15T11:56:47.783Z,6.65
2023-01-15T11:59:18.807Z,6.54
2023-01-15T12:01:54.740Z,6.61
2023-01-15T12:04:33.008Z,6.34
2023-01-15T12:07:05.108Z,6.47
2023-01-15T12:10:04.906Z,6.50
2023-01-15T12:12:54.445Z,6.39
2023-01-15T12:15:37.629Z,6.54
2023-01-15T12:18:27.558Z,6.50
2023-01-15T12:21:03.585Z,6.54
2023-01-15T12:24:11.771Z,6.57
2023-01-15T12:26:55.457Z,6.54
2023-01-15T12:29:28.241Z,6.50
2023-01-15T12:32:03.062Z,6.51
2023-01-15T12:34:42.833Z,6.54
2023-01-15T12:37:17.581Z,6.61
2023-01-15T12:39:51.966Z,6.63
2023-01-15T12:42:26.062Z,6.69
2023-01-15T12:45:01.030Z,6.58
2023-01-15T12:47:40.007Z,6.57
2023-01-15T12:50:27.106Z,6.45
2023-01-15T12:53:04.419Z,6.50
2023-01-15T12:55:40.735Z,6.58
2023-01-15T12:58:33.572Z,6.70
2023-01-15T13:01:13.680Z,6.72
2023-01-15T13:03:58.119Z,6.75
2023-01-15T13:06:27.271Z,6.68
2023-01-15T13:09:02.834Z,6.69
2023-01-15T13:11:32.023Z,6.72
2023-01-15T13:13:58.983Z,6.76
2023-01-15T13:16:48.475Z,6.73
2023-01-15T13:19:37.073Z,6.68
2023-01-15T13:22:14.553Z,6.59
2023-01-15T13:25:23.831Z,6.58
2023-01-15T13:28:14.672Z,6.69
2023-01-15T13:31:00.832Z,6.91
2023-01-15T13:33:38.747Z,7.14
2023-01-15T13:36:16.122Z,7.31
2023-01-15T13:38:50.426Z,7.39
2023-01-15T13:41:22.764Z,7.55
2023-01-15T13:43:51.001Z,7.71
2023-01-15T13:46:21.537Z,7.67
2023-01-15T13:48:52.069Z,7.59
2023-01-15T13:51:30.212Z,7.68
2023-01-15T13:54:01.420Z,7.62
2023-01-15T13:56:31.194Z,7.67
2023-01-15T13:59:02.321Z,7.62
2023-01-15T14:01:35.225Z,7.72
2023-01-15T14:04:06.521Z,7.71
2023-01-15T14:06:40.322Z,8.04
2023-01-15T14:09:11.878Z,8.23
2023-01-15T14:11:56.482Z,8.94
2023-01-15T14:15:08.510Z,8.40
2023-01-15T14:18:16.812Z,8.03
2023-01-15T14:21:24.309Z,8.28
2023-01-15T14:24:19.557Z,8.14
2023-01-15T14:27:00.036Z,7.93
2023-01-15T14:30:07.069Z,7.98
2023-01-15T14:32:58.624Z,8.32
2023-01-15T14:35:26.665Z,9.08
2023-01-15T14:37:57.763Z,9.63
2023-01-15T14:40:30.052Z,9.17
2023-01-15T14:43:03.696Z,8.32
2023-01-15T14:45:36.595Z,8.21
2023-01-15T14:48:16.270Z,8.07
2023-01-15T14:50:45.950Z,7.79
2023-01-15T14:53:34.042Z,7.84
2023-01-15T14:56:13.985Z,7.72
2023-01-15T14:58:52.928Z,7.58
2023-01-15T15:01:52.036Z,7.65
2023-01-15T15:04:36.945Z,7.61
2023-01-15T15:07:11.177Z,7.68
2023-01-15T15:09:44.143Z,7.72
2023-01-15T15:12:42.376Z,7.79
2023-01-15T15:15:19.699Z,7.57
2023-01-15T15:18:01.347Z,7.51
2023-01-15T15:20:44.034Z,7.52
2023-01-15T15:23:20.505Z,7.59
2023-01-15T15:25:59.359Z,7.52
2023-01-15T15:28:28.720Z,7.24
2023-01-15T15:30:58.711Z,7.24
2023-01-15T15:33:38.166Z,7.35
2023-01-15T15:36:08.548Z,7.22
2023-01-15T15:38:35.447Z,6.91
2023-01-15T15:41:10.867Z,6.92
2023-01-15T15:43:48.757Z,6.91
2023-01-15T15:46:26.027Z,6.74
2023-01-15T15:48:58.201Z,6.79
2023-01-15T15:51:31.785Z,6.59
2023-01-15T15:54:15.592Z,6.43
2023-01-15T15:56:50.468Z,6.37
2023-01-15T15:59:32.542Z,6.31
2023-01-15T16:02:14.369Z,6.19
2023-01-15T16:04:47.791Z,6.16
2023-01-15T16:07:20.865Z,6.12
2023-01-15T16:09:52.579Z,6.01
2023-01-15T16:12:21.083Z,5.98
2023-01-15T16:14:49.822Z,5.91
2023-01-15T16:17:18.098Z,5.84
2023-01-15T16:19:47.321Z,5.78
2023-01-15T16:22:18.124Z,5.74
2023-01-15T16:24:54.741Z,5.72
2023-01-15T16:27:31.686Z,5.66
2023-01-15T16:30:00.797Z,5.65
2023-01-15T16:32:32.276Z,5.66
2023-01-15T16:35:08.502Z,5.67
2023-01-15T16:37:36.206Z,5.62
2023-01-15T16:40:07.286Z,5.58
2023-01-15T16:42:39.839Z,5.58
2023-01-15T16:45:21.877Z,5.57
2023-01-15T16:48:08.849Z,5.57
2023-01-15T16:50:38.854Z,5.55
2023-01-15T16:53:32.041Z,5.56
2023-01-15T16:55:59.469Z,5.48
2023-01-15T16:58:36.829Z,5.43
2023-01-15T17:01:36.335Z,5.41
2023-01-15T17:04:13.873Z,5.33
2023-01-15T17:06:42.148Z,5.36
2023-01-15T17:09:14.822Z,5.34
2023-01-15T17:11:42.591Z,5.30
2023-01-15T17:14:20.502Z,5.25
2023-01-15T17:16:47.721Z,5.20
2023-01-15T17:19:16.544Z,5.20
2023-01-15T17:21:44.990Z,5.20
2023-01-15T17:24:12.301Z,5.22
2023-01-15T17:26:39.324Z,5.25
2023-01-15T17:29:06.223Z,5.28
2023-01-15T17:31:34.681Z,5.21
2023-01-15T17:34:03.409Z,5.30
2023-01-15T17:36:31.107Z,5.24
2023-01-15T17:38:59.221Z,5.24
2023-01-15T17:41:26.790Z,5.20
2023-01-15T17:43:53.671Z,5.16
2023-01-15T17:46:20.648Z,5.15
2023-01-15T17:48:47.994Z,5.23
2023-01-15T17:51:16.681Z,5.16
2023-01-15T17:53:43.648Z,5.15
2023-01-15T17:56:11.962Z,5.14
2023-01-15T17:58:39.723Z,5.04
2023-01-15T18:01:19.162Z,5.20
2023-01-15T18:03:50.808Z,5.23
2023-01-15T18:06:22.033Z,5.20
2023-01-15T18:08:58.714Z,5.18
2023-01-15T18:11:26.916Z,5.27
2023-01-15T18:13:53.928Z,5.17
2023-01-15T18:16:20.744Z,5.23
2023-01-15T18:18:47.654Z,5.22
2023-01-15T18:21:14.924Z,5.18
2023-01-15T18:23:41.677Z,5.25
2023-01-15T18:26:09.652Z,5.26
2023-01-15T18:28:38.748Z,5.33
2023-01-15T18:31:07.012Z,5.23
2023-01-15T18:33:34.796Z,5.20
2023-01-15T18:36:03.994Z,5.23
2023-01-15T18:38:32.455Z,5.16
2023-01-15T18:41:07.683Z,5.19
2023-01-15T18:43:34.608Z,5.10
2023-01-15T18:46:05.953Z,5.09
2023-01-15T18:48:34.052Z,5.07
2023-01-15T18:51:07.649Z,5.04
2023-01-15T18:53:34.497Z,5.10
2023-01-15T18:56:02.543Z,5.08
2023-01-15T18:58:30.955Z,5.01
2023-01-15T19:00:58.141Z,5.02
2023-01-15T19:03:26.481Z,5.07
2023-01-15T19:05:53.343Z,5.02
2023-01-15T19:08:20.426Z,4.96
2023-01-15T19:10:47.311Z,5.07
2023-01-15T19:13:14.794Z,5.02
2023-01-15T19:15:42.329Z,5.05
2023-01-15T19:18:11.557Z,5.06
2023-01-15T19:20:41.307Z,5.05
2023-01-15T19:23:08.216Z,5.00
2023-01-15T19:25:47.340Z,5.04
2023-01-15T19:28:18.832Z,5.14
2023-01-15T19:30:47.947Z,5.03
2023-01-15T19:33:15.008Z,4.94
2023-01-15T19:35:43.293Z,4.93
2023-01-15T19:38:10.777Z,4.94
2023-01-15T19:40:40.923Z,5.05
2023-01-15T19:43:09.870Z,5.09
2023-01-15T19:45:40.721Z,5.04
2023-01-15T19:48:14.162Z,5.03
2023-01-15T19:50:47.104Z,5.06
2023-01-15T19:53:14.526Z,5.05
2023-01-15T19:55:44.920Z,5.01
2023-01-15T19:58:16.261Z,5.05
2023-01-15T20:00:45.969Z,5.03
2023-01-15T20:03:13.083Z,4.99
2023-01-15T20:05:42.585Z,4.97
2023-01-15T20:08:11.275Z,4.89
2023-01-15T20:10:41.261Z,4.88
2023-01-15T20:13:13.863Z,4.85
2023-01-15T20:15:43.909Z,4.87
2023-01-15T20:18:12.240Z,4.83
2023-01-15T20:20:39.674Z,4.82
2023-01-15T20:23:07.166Z,4.81
2023-01-15T20:25:35.512Z,4.74
2023-01-15T20:28:02.503Z,4.63
2023-01-15T20:30:29.464Z,4.52
2023-01-15T20:33:47.491Z,4.41
2023-01-15T20:36:15.979Z,4.37
2023-01-15T20:38:42.857Z,4.36
2023-01-15T20:41:11.474Z,4.51
2023-01-15T20:43:38.507Z,4.54
2023-01-15T20:46:12.400Z,4.61
2023-01-15T20:48:39.876Z,4.65
2023-01-15T20:51:11.684Z,4.66
2023-01-15T20:53:38.902Z,4.60
2023-01-15T20:56:14.777Z,4.65
2023-01-15T20:58:42.483Z,4.70
2023-01-15T21:01:09.814Z,4.64
2023-01-15T21:03:38.392Z,4.57
2023-01-15T21:06:07.209Z,4.51
2023-01-15T21:08:35.469Z,4.55
2023-01-15T21:11:02.805Z,4.55
2023-01-15T21:13:31.301Z,4.58
2023-01-15T21:16:01.701Z,4.60
2023-01-15T21:18:31.434Z,4.61
2023-01-15T21:20:58.410Z,4.60
2023-01-15T21:23:25.641Z,4.63
2023-01-15T21:26:11.313Z,4.66
2023-01-15T21:28:39.472Z,4.69
2023-01-15T21:31:08.407Z,4.72
2023-01-15T21:33:36.619Z,4.76
2023-01-15T21:36:06.987Z,4.84
2023-01-15T21:38:34.246Z,4.79
2023-01-15T21:41:07.979Z,4.83
2023-01-15T21:43:35.052Z,4.84
2023-01-15T21:46:05.065Z,4.84
2023-01-15T21:48:32.401Z,4.86
2023-01-15T21:51:02.960Z,4.84
2023-01-15T21:53:31.285Z,4.76
2023-01-15T21:55:58.184Z,4.74
2023-01-15T21:58:25.092Z,4.77
2023-01-15T22:00:52.106Z,4.78
2023-01-15T22:03:21.250Z,4.85
2023-01-15T22:05:48.241Z,4.89
2023-01-15T22:08:15.119Z,4.93
2023-01-15T22:10:41.980Z,4.96
2023-01-15T22:13:08.947Z,4.96
2023-01-15T22:15:36.019Z,4.94
2023-01-15T22:18:03.306Z,4.95
2023-01-15T22:20:31.910Z,4.89
2023-01-15T22:22:58.743Z,4.87
2023-01-15T22:25:25.724Z,4.88
2023-01-15T22:27:52.635Z,4.91
2023-01-15T22:30:19.783Z,4.90
2023-01-15T22:32:46.702Z,4.86
2023-01-15T22:35:13.540Z,4.79
2023-01-15T22:37:41.836Z,4.74
2023-01-15T22:40:10.766Z,4.65
2023-01-15T22:42:37.570Z,4.60
2023-01-15T22:45:05.444Z,4.48
2023-01-15T22:47:32.253Z,4.23
2023-01-15T22:49:59.070Z,4.11
2023-01-15T22:52:26.316Z,4.01
2023-01-15T22:54:54.816Z,3.91
2023-01-15T22:57:21.703Z,3.85
2023-01-15T22:59:48.583Z,3.74
2023-01-15T23:02:16.444Z,3.70
2023-01-15T23:04:43.436Z,3.73
2023-01-15T23:07:10.276Z,3.77
2023-01-15T23:09:37.331Z,3.75
2023-01-15T23:12:05.904Z,3.73
2023-01-15T23:14:32.872Z,3.71
2023-01-15T23:17:00.858Z,3.68
2023-01-15T23:19:27.590Z,3.71
2023-01-15T23:21:54.556Z,3.72
2023-01-15T23:24:21.387Z,3.76
2023-01-15T23:26:48.680Z,3.78
2023-01-15T23:29:17.229Z,3.80
2023-01-15T23:31:44.234Z,3.78
2023-01-15T23:34:11.444Z,3.79
2023-01-15T23:36:39.148Z,3.83
2023-01-15T23:39:06.077Z,3.90
2023-01-15T23:41:32.860Z,3.87
2023-01-15T23:43:59.854Z,3.88
2023-01-15T23:46:29.679Z,3.89
2023-01-15T23:48:56.721Z,3.96
2023-01-15T23:51:23.567Z,4.01
2023-01-15T23:53:50.432Z,4.00
2023-01-15T23:56:17.559Z,3.99
2023-01-15T23:58:44.574Z,4.01
